Time;durP1;ratioP1;P1;durP2;ratioP2;P2;SDS_P1;SDS_P2;PMS_P1;PMS_P2;Temp;Humidity;BMP_temperature;BMP_pressure;BME280_temperature;BME280_humidity;BME280_pressure;Samples;Min_cycle;Max_cycle;Signal;HPM_P1;HPM_P2
2023/03/17 00:01:35;;;;;;;;;;;;;;;6.43;100.00;99727.84;5076303;28;20625;-61
2023/03/17 00:04:00;;;;;;;;;;;;;;;6.35;100.00;99722.75;5078629;28;20622;-61
2023/03/17 00:06:28;;;;;;;;;;;;;;;6.28;100.00;99731.69;5072022;28;19952;-61
2023/03/17 00:08:53;;;;;;;;;;;;;;;6.24;100.00;99726.50;5078148;28;19920;-61
2023/03/17 00:11:19;;;;;;;;;;;;;;;6.21;100.00;99718.63;5092463;28;20676;-61
2023/03/17 00:13:45;;;;;;;;;;;;;;;6.19;100.00;99717.78;5092283;28;20024;-61
2023/03/17 00:16:24;;;;;;;;;;;;;;;6.08;100.00;99717.16;5091331;28;20034;-61
2023/03/17 00:18:51;;;;;;;;;;;;;;;6.08;100.00;99711.88;5092484;28;20017;-61
2023/03/17 00:21:22;;;;;;;;;;;;;;;6.09;100.00;99713.59;5091288;28;20434;-61
2023/03/17 00:23:49;;;;;;;;;;;;;;;6.09;100.00;99714.47;5092264;28;19916;-61
2023/03/17 00:26:15;;;;;;;;;;;;;;;6.10;100.00;99715.31;5088894;28;19943;-61
2023/03/17 00:28:40;;;;;;;;;;;;;;;6.11;100.00;99723.19;5091889;28;19929;-61
2023/03/17 00:31:12;;;;;;;;;;;;;;;6.09;100.00;99724.16;5089246;28;19996;-61
2023/03/17 00:33:37;;;;;;;;;;;;;;;6.09;100.00;99729.44;5086222;28;19942;-61
2023/03/17 00:36:02;;;;;;;;;;;;;;;6.10;100.00;99733.81;5088719;28;19953;-61
2023/03/17 00:38:28;;;;;;;;;;;;;;;6.10;100.00;99739.09;5090083;28;19999;-61
2023/03/17 00:40:54;;;;;;;;;;;;;;;6.11;100.00;99732.91;5091247;28;19971;-61
2023/03/17 00:43:19;;;;;;;;;;;;;;;6.12;100.00;99737.28;5090319;28;19935;-61
2023/03/17 00:45:45;;;;;;;;;;;;;;;6.14;100.00;99740.78;5090360;28;19962;-61
2023/03/17 00:48:18;;;;;;;;;;;;;;;6.15;100.00;99739.88;5067435;28;20299;-61
2023/03/17 00:50:44;;;;;;;;;;;;;;;6.19;100.00;99741.56;5083022;28;19995;-61
2023/03/17 00:53:14;;;;;;;;;;;;;;;6.18;100.00;99737.16;5090961;28;20574;-61
2023/03/17 00:55:40;;;;;;;;;;;;;;;6.26;100.00;99743.19;5090971;28;19970;-61
2023/03/17 00:58:13;;;;;;;;;;;;;;;6.27;100.00;99739.63;5090639;28;19960;-61
2023/03/17 01:00:38;;;;;;;;;;;;;;;6.28;100.00;99725.50;5082419;28;19940;-61
2023/03/17 01:03:04;;;;;;;;;;;;;;;6.31;100.00;99725.47;5089320;28;19942;-61
2023/03/17 01:05:29;;;;;;;;;;;;;;;6.35;100.00;99722.75;5091181;28;19970;-61
2023/03/17 01:07:56;;;;;;;;;;;;;;;6.42;100.00;99726.13;5090371;28;19973;-61
2023/03/17 01:10:25;;;;;;;;;;;;;;;6.44;100.00;99732.25;5091140;28;20335;-61
2023/03/17 01:12:51;;;;;;;;;;;;;;;6.46;100.00;99720.75;5091012;28;19928;-61
2023/03/17 01:15:17;;;;;;;;;;;;;;;6.44;100.00;99721.69;5090375;28;20394;-61
2023/03/17 01:17:43;;;;;;;;;;;;;;;6.47;100.00;99724.25;5091021;28;19955;-61
2023/03/17 01:20:29;;;;;;;;;;;;;;;6.48;100.00;99718.94;5090236;28;19920;-61
2023/03/17 01:22:54;;;;;;;;;;;;;;;6.48;100.00;99711.00;5089854;28;19937;-61
2023/03/17 01:25:20;;;;;;;;;;;;;;;6.45;100.00;99707.56;5090012;28;19946;-61
2023/03/17 01:27:46;;;;;;;;;;;;;;;6.42;100.00;99699.72;5085285;28;19964;-61
2023/03/17 01:30:20;;;;;;;;;;;;;;;6.45;100.00;99697.00;5090681;28;20315;-61
2023/03/17 01:32:45;;;;;;;;;;;;;;;6.48;100.00;99692.53;5090604;28;20386;-61
2023/03/17 01:35:11;;;;;;;;;;;;;;;6.52;100.00;99699.47;5089902;28;19920;-61
2023/03/17 01:37:37;;;;;;;;;;;;;;;6.53;100.00;99689.78;5090771;28;19926;-60
2023/03/17 01:40:03;;;;;;;;;;;;;;;6.52;100.00;99693.34;5090671;28;20291;-61
2023/03/17 01:42:28;;;;;;;;;;;;;;;6.53;100.00;99690.66;5090384;28;19928;-60
2023/03/17 01:45:01;;;;;;;;;;;;;;;6.59;100.00;99695.78;5087281;28;20340;-61
2023/03/17 01:47:30;;;;;;;;;;;;;;;6.57;100.00;99697.59;5086827;28;19932;-60
2023/03/17 01:49:57;;;;;;;;;;;;;;;6.54;100.00;99696.78;5089223;28;20021;-61
2023/03/17 01:52:23;;;;;;;;;;;;;;;6.50;100.00;99695.13;5077073;28;19934;-61
2023/03/17 01:54:55;;;;;;;;;;;;;;;6.47;100.00;99711.06;5070123;28;20053;-61
2023/03/17 01:57:23;;;;;;;;;;;;;;;6.43;100.00;99709.34;5088509;28;19942;-61
2023/03/17 01:59:50;;;;;;;;;;;;;;;6.40;100.00;99701.50;5089170;28;20270;-61
2023/03/17 02:02:18;;;;;;;;;;;;;;;6.41;100.00;99690.03;5079466;28;19920;-61
2023/03/17 02:04:44;;;;;;;;;;;;;;;6.37;100.00;99685.72;5083889;28;19947;-62
2023/03/17 02:07:10;;;;;;;;;;;;;;;6.33;100.00;99681.41;5069775;28;20021;-61
2023/03/17 02:09:36;;;;;;;;;;;;;;;6.31;100.00;99688.50;5089367;28;20429;-61
2023/03/17 02:12:01;;;;;;;;;;;;;;;6.26;100.00;99695.66;5089878;28;19965;-61
2023/03/17 02:14:27;;;;;;;;;;;;;;;6.23;100.00;99687.75;5089349;28;19920;-61
2023/03/17 02:16:52;;;;;;;;;;;;;;;6.20;100.00;99685.19;5071760;28;19941;-61
2023/03/17 02:19:18;;;;;;;;;;;;;;;6.20;100.00;99679.91;5089577;28;19916;-61
2023/03/17 02:21:48;;;;;;;;;;;;;;;6.16;100.00;99665.91;5089451;28;19946;-61
2023/03/17 02:24:34;;;;;;;;;;;;;;;6.20;100.00;99672.00;5089868;28;19916;-61
2023/03/17 02:27:05;;;;;;;;;;;;;;;6.18;100.00;99664.09;5074274;28;19970;-61
2023/03/17 02:29:32;;;;;;;;;;;;;;;6.16;100.00;99667.69;5090015;28;19927;-61
2023/03/17 02:31:58;;;;;;;;;;;;;;;6.08;100.00;99670.47;5077076;28;20018;-61
2023/03/17 02:34:23;;;;;;;;;;;;;;;6.04;100.00;99667.94;5084709;28;19930;-61
2023/03/17 02:36:48;;;;;;;;;;;;;;;5.96;100.00;99659.28;5077170;28;19954;-61
2023/03/17 02:39:13;;;;;;;;;;;;;;;5.87;100.00;99655.06;5072268;28;20310;-61
2023/03/17 02:42:04;;;;;;;;;;;;;;;5.81;100.00;99656.91;5069583;28;19939;-61
2023/03/17 02:44:30;;;;;;;;;;;;;;;5.81;100.00;99649.88;5075963;28;20018;-61
2023/03/17 02:46:55;;;;;;;;;;;;;;;5.88;100.00;99655.94;5089475;28;20435;-61
2023/03/17 02:49:21;;;;;;;;;;;;;;;5.81;100.00;99649.00;5084805;28;19961;-62
2023/03/17 02:51:46;;;;;;;;;;;;;;;5.73;100.00;99650.91;5088758;28;20349;-61
2023/03/17 02:54:12;;;;;;;;;;;;;;;5.66;100.00;99651.94;5088972;28;20319;-61
2023/03/17 02:56:37;;;;;;;;;;;;;;;5.60;100.00;99649.41;5087346;28;19949;-61
2023/03/17 02:59:03;;;;;;;;;;;;;;;5.57;100.00;99650.31;5088929;28;19916;-61
2023/03/17 03:01:29;;;;;;;;;;;;;;;5.50;100.00;99653.13;5088831;28;19912;-61
2023/03/17 03:03:55;;;;;;;;;;;;;;;5.49;100.00;99644.31;5089640;28;20417;-61
2023/03/17 03:06:22;;;;;;;;;;;;;;;5.46;100.00;99646.13;5085951;28;20039;-61
2023/03/17 03:08:47;;;;;;;;;;;;;;;5.40;100.00;99639.22;5089411;28;19937;-61
2023/03/17 03:11:13;;;;;;;;;;;;;;;5.32;100.00;99636.72;5089598;28;19933;-61
2023/03/17 03:13:38;;;;;;;;;;;;;;;5.26;100.00;99643.84;5088720;28;20013;-60
2023/03/17 03:16:04;;;;;;;;;;;;;;;5.18;100.00;99641.38;5089242;28;19922;-61
2023/03/17 03:18:29;;;;;;;;;;;;;;;5.16;100.00;99643.16;5089110;28;19928;-61
2023/03/17 03:20:55;;;;;;;;;;;;;;;5.22;100.00;99647.47;5087589;28;19916;-61
2023/03/17 03:23:21;;;;;;;;;;;;;;;5.23;100.00;99647.44;5092024;28;19916;-60
2023/03/17 03:25:46;;;;;;;;;;;;;;;5.13;100.00;99651.13;5093103;28;19963;-61
2023/03/17 03:28:11;;;;;;;;;;;;;;;5.00;100.00;99648.72;5092316;28;19928;-61
2023/03/17 03:30:37;;;;;;;;;;;;;;;4.89;100.00;99643.59;5083696;28;19956;-61
2023/03/17 03:33:02;;;;;;;;;;;;;;;4.86;100.00;99650.72;5072576;28;19942;-61
2023/03/17 03:35:28;;;;;;;;;;;;;;;4.78;100.00;99645.53;5072695;28;19916;-61
2023/03/17 03:37:55;;;;;;;;;;;;;;;4.70;100.00;99647.41;5076496;28;19934;-61
2023/03/17 03:40:20;;;;;;;;;;;;;;;4.68;100.00;99649.19;5089470;28;19934;-61
2023/03/17 03:42:45;;;;;;;;;;;;;;;4.63;100.00;99661.56;5092787;28;19927;-61
2023/03/17 03:45:11;;;;;;;;;;;;;;;4.61;100.00;99659.84;5088808;28;20372;-61
2023/03/17 03:47:36;;;;;;;;;;;;;;;4.56;100.00;99656.41;5092787;28;20037;-61
2023/03/17 03:50:01;;;;;;;;;;;;;;;4.52;100.00;99659.97;5091870;28;19935;-61
2023/03/17 03:52:27;;;;;;;;;;;;;;;4.54;100.00;99656.44;5092338;28;19934;-61
2023/03/17 03:54:52;;;;;;;;;;;;;;;4.59;100.00;99662.53;5092613;28;20418;-61
2023/03/17 03:57:17;;;;;;;;;;;;;;;4.56;100.00;99659.94;5092784;28;19951;-61
2023/03/17 03:59:43;;;;;;;;;;;;;;;4.46;100.00;99657.44;5091012;28;19976;-61
2023/03/17 04:02:08;;;;;;;;;;;;;;;4.45;100.00;99661.81;5072180;28;19979;-61
2023/03/17 04:04:33;;;;;;;;;;;;;;;4.48;100.00;99661.78;5078243;28;19927;-61
2023/03/17 04:06:59;;;;;;;;;;;;;;;4.42;100.00;99664.50;5071937;28;19951;-61
2023/03/17 04:09:24;;;;;;;;;;;;;;;4.38;100.00;99659.31;5074260;28;20456;-61
2023/03/17 04:11:50;;;;;;;;;;;;;;;4.39;100.00;99667.19;5092095;28;19950;-61
2023/03/17 04:14:16;;;;;;;;;;;;;;;4.41;100.00;99673.31;5092034;28;20033;-61
2023/03/17 04:16:41;;;;;;;;;;;;;;;4.38;100.00;99664.56;5091658;28;20030;-60
2023/03/17 04:19:07;;;;;;;;;;;;;;;4.32;100.00;99665.50;5092194;28;20026;-60
2023/03/17 04:21:33;;;;;;;;;;;;;;;4.30;100.00;99662.03;5091902;28;19926;-60
2023/03/17 04:23:58;;;;;;;;;;;;;;;4.31;100.00;99658.53;5091875;28;19912;-60
2023/03/17 04:26:23;;;;;;;;;;;;;;;4.33;100.00;99650.59;5072283;28;20469;-61
2023/03/17 04:28:48;;;;;;;;;;;;;;;4.30;100.00;99651.50;5088526;28;19947;-61
2023/03/17 04:31:14;;;;;;;;;;;;;;;4.29;100.00;99652.41;5090795;28;20347;-61
2023/03/17 04:33:39;;;;;;;;;;;;;;;4.30;100.00;99648.88;5088374;28;20037;-60
2023/03/17 04:36:06;;;;;;;;;;;;;;;4.29;100.00;99655.03;5082830;28;20377;-61
2023/03/17 04:38:31;;;;;;;;;;;;;;;4.34;100.00;99652.34;5090872;28;19985;-61
2023/03/17 04:40:57;;;;;;;;;;;;;;;4.30;100.00;99656.75;5091233;28;19912;-61
2023/03/17 04:43:22;;;;;;;;;;;;;;;4.32;100.00;99662.88;5087256;28;20537;-61
2023/03/17 04:45:47;;;;;;;;;;;;;;;4.26;100.00;99660.34;5089729;28;19942;-61
2023/03/17 04:48:13;;;;;;;;;;;;;;;4.23;100.00;99670.91;5091397;28;19949;-60
2023/03/17 04:50:38;;;;;;;;;;;;;;;4.19;100.00;99669.19;5090663;28;19934;-61
2023/03/17 04:53:03;;;;;;;;;;;;;;;4.24;100.00;99675.28;5089905;28;19937;-60
2023/03/17 04:55:29;;;;;;;;;;;;;;;4.15;100.00;99666.63;5090608;28;19958;-61
2023/03/17 04:57:54;;;;;;;;;;;;;;;4.08;100.00;99666.69;5089809;28;20021;-60
2023/03/17 05:00:20;;;;;;;;;;;;;;;4.07;100.00;99673.75;5090556;28;19972;-60
2023/03/17 05:02:45;;;;;;;;;;;;;;;4.05;100.00;99658.84;5090594;28;19940;-60
2023/03/17 05:05:11;;;;;;;;;;;;;;;4.02;100.00;99663.25;5080897;28;20444;-60
2023/03/17 05:07:37;;;;;;;;;;;;;;;3.96;100.00;99663.34;5080821;28;19927;-60
2023/03/17 05:10:02;;;;;;;;;;;;;;;3.96;100.00;99663.34;5086714;28;19917;-61
2023/03/17 05:12:27;;;;;;;;;;;;;;;3.90;100.00;99672.16;5073560;28;19978;-60
2023/03/17 05:14:53;;;;;;;;;;;;;;;3.82;100.00;99684.53;5091085;28;19932;-60
2023/03/17 05:17:18;;;;;;;;;;;;;;;3.76;100.00;99678.47;5089317;28;19916;-60
2023/03/17 05:19:43;;;;;;;;;;;;;;;3.74;100.00;99685.53;5084020;28;19936;-60
2023/03/17 05:22:09;;;;;;;;;;;;;;;3.71;100.00;99686.44;5090921;28;19930;-60
2023/03/17 05:24:34;;;;;;;;;;;;;;;3.69;100.00;99689.97;5090105;28;20404;-61
2023/03/17 05:26:59;;;;;;;;;;;;;;;3.68;100.00;99698.72;5090677;28;19993;-61
2023/03/17 05:29:25;;;;;;;;;;;;;;;3.67;100.00;99699.63;5090541;28;19937;-61
2023/03/17 05:31:50;;;;;;;;;;;;;;;3.66;100.00;99705.75;5086217;28;20371;-61
2023/03/17 05:34:16;;;;;;;;;;;;;;;3.63;100.00;99706.69;5090452;28;19971;-61
2023/03/17 05:36:42;;;;;;;;;;;;;;;3.64;100.00;99707.56;5089902;28;20425;-61
2023/03/17 05:39:07;;;;;;;;;;;;;;;3.61;100.00;99697.03;5081388;28;19936;-61
2023/03/17 05:41:33;;;;;;;;;;;;;;;3.64;100.00;99699.66;5070421;28;19944;-61
2023/03/17 05:43:58;;;;;;;;;;;;;;;3.68;100.00;99689.09;5084426;28;20295;-61
2023/03/17 05:46:24;;;;;;;;;;;;;;;3.72;100.00;99687.31;5078081;28;19944;-61
2023/03/17 05:48:49;;;;;;;;;;;;;;;3.79;100.00;99683.69;5079910;28;20063;-61
2023/03/17 05:51:14;;;;;;;;;;;;;;;3.86;100.00;99691.53;5090379;28;19960;-61
2023/03/17 05:53:40;;;;;;;;;;;;;;;3.93;100.00;99693.22;5090173;28;19964;-61
2023/03/17 05:56:06;;;;;;;;;;;;;;;3.96;100.00;99697.56;5088937;28;19931;-61
2023/03/17 05:58:31;;;;;;;;;;;;;;;3.99;100.00;99698.41;5069511;28;19926;-61
2023/03/17 06:01:00;;;;;;;;;;;;;;;4.07;100.00;99685.13;5076223;28;19924;-67
2023/03/17 06:03:26;;;;;;;;;;;;;;;4.15;100.00;99685.94;5071794;28;19931;-60
2023/03/17 06:05:51;;;;;;;;;;;;;;;4.30;100.00;99683.09;5088851;28;19990;-62
2023/03/17 06:08:17;;;;;;;;;;;;;;;4.45;100.00;99690.78;5088609;28;20417;-61
2023/03/17 06:10:45;;;;;;;;;;;;;;;4.62;100.00;99690.56;5089311;28;19923;-65
2023/03/17 06:13:16;;;;;;;;;;;;;;;4.78;100.00;99690.31;5085360;28;20435;-63
2023/03/17 06:15:42;;;;;;;;;;;;;;;5.35;100.00;99688.53;5081008;28;19932;-60
2023/03/17 06:18:07;;;;;;;;;;;;;;;6.44;100.00;99695.28;5079591;28;19933;-61
2023/03/17 06:20:33;;;;;;;;;;;;;;;8.03;100.00;99678.06;5085707;28;19978;-61
2023/03/17 06:22:59;;;;;;;;;;;;;;;9.39;97.06;99687.16;5078594;28;19933;-64
2023/03/17 06:25:24;;;;;;;;;;;;;;;10.67;86.49;99679.03;5066818;28;19920;-64
2023/03/17 06:27:53;;;;;;;;;;;;;;;11.73;78.22;99677.31;5060131;28;19945;-62
2023/03/17 06:30:19;;;;;;;;;;;;;;;12.45;65.54;99686.56;5078766;28;20356;-63
2023/03/17 06:32:45;;;;;;;;;;;;;;;12.65;62.04;99691.81;5081506;28;19939;-62
2023/03/17 06:35:10;;;;;;;;;;;;;;;12.78;59.43;99702.81;5079907;28;19935;-66
2023/03/17 06:37:36;;;;;;;;;;;;;;;12.44;58.79;99706.16;5082898;28;19998;-61
2023/03/17 06:40:04;;;;;;;;;;;;;;;12.29;58.58;99698.00;5088210;28;19948;-61
2023/03/17 06:42:30;;;;;;;;;;;;;;;11.80;58.85;99689.44;5079874;28;19985;-62
2023/03/17 06:44:55;;;;;;;;;;;;;;;11.22;61.15;99689.25;5081145;28;19970;-63
2023/03/17 06:47:21;;;;;;;;;;;;;;;10.56;65.77;99696.25;5079906;28;19947;-62
2023/03/17 06:49:46;;;;;;;;;;;;;;;10.57;66.26;99695.34;5078522;28;19967;-62
2023/03/17 06:52:12;;;;;;;;;;;;;;;10.59;67.04;99692.63;5088192;28;19941;-61
2023/03/17 06:54:38;;;;;;;;;;;;;;;10.32;67.40;99694.50;5089285;28;20045;-61
2023/03/17 06:57:03;;;;;;;;;;;;;;;10.29;69.07;99688.44;5092112;28;20375;-66
2023/03/17 06:59:29;;;;;;;;;;;;;;;10.29;69.98;99688.44;5093738;28;20013;-62
2023/03/17 07:01:58;;;;;;;;;;;;;;;10.18;71.75;99680.00;5093732;28;19999;-61
2023/03/17 07:04:24;;;;;;;;;;;;;;;10.62;70.96;99674.72;5092716;28;19948;-62
2023/03/17 07:06:50;;;;;;;;;;;;;;;11.41;70.57;99680.44;5088296;28;19952;-62
2023/03/17 07:09:16;;;;;;;;;;;;;;;12.62;65.36;99673.28;5083469;28;19948;-61
2023/03/17 07:11:41;;;;;;;;;;;;;;;13.84;60.35;99693.13;5083151;28;20687;-62
2023/03/17 07:14:07;;;;;;;;;;;;;;;14.82;54.65;99691.47;5076809;28;20823;-62
2023/03/17 07:16:33;;;;;;;;;;;;;;;15.08;51.87;99698.91;5083744;28;19972;-60
2023/03/17 07:18:58;;;;;;;;;;;;;;;15.18;52.32;99700.13;5085162;28;20391;-61
2023/03/17 07:21:24;;;;;;;;;;;;;;;16.42;50.75;99698.16;5082384;28;19927;-62
2023/03/17 07:23:49;;;;;;;;;;;;;;;17.18;47.52;99699.59;5073041;28;19925;-62
2023/03/17 07:26:14;;;;;;;;;;;;;;;18.44;45.52;99695.53;5084757;28;20036;-61
2023/03/17 07:28:40;;;;;;;;;;;;;;;19.38;43.58;99688.69;5074308;28;19930;-61
2023/03/17 07:31:12;;;;;;;;;;;;;;;20.15;41.22;99687.34;5073508;28;20168;-64
2023/03/17 07:33:38;;;;;;;;;;;;;;;20.54;39.89;99693.22;5075694;28;19934;-62
2023/03/17 07:36:05;;;;;;;;;;;;;;;20.36;39.15;99688.41;5076213;28;19917;-64
2023/03/17 07:38:31;;;;;;;;;;;;;;;19.79;40.94;99682.88;5055315;28;19942;-62
2023/03/17 07:40:56;;;;;;;;;;;;;;;20.23;41.09;99690.34;5081263;28;19965;-63
2023/03/17 07:43:22;;;;;;;;;;;;;;;20.78;40.52;99685.03;5087989;28;20326;-62
2023/03/17 07:45:47;;;;;;;;;;;;;;;21.12;39.71;99680.53;5077261;28;20110;-63
2023/03/17 07:48:13;;;;;;;;;;;;;;;21.43;38.79;99682.44;5072437;28;19924;-61
2023/03/17 07:50:39;;;;;;;;;;;;;;;21.31;38.78;99678.03;5072229;28;19945;-60
2023/03/17 07:53:04;;;;;;;;;;;;;;;21.70;38.26;99680.16;5077731;28;20400;-62
2023/03/17 07:55:30;;;;;;;;;;;;;;;22.13;36.93;99678.28;5088733;28;20484;-62
2023/03/17 07:57:55;;;;;;;;;;;;;;;22.18;38.52;99676.91;5075759;28;19929;-63
2023/03/17 08:00:22;;;;;;;;;;;;;;;21.88;39.72;99693.03;5086209;28;19955;-64
2023/03/17 08:02:47;;;;;;;;;;;;;;;21.76;39.47;99687.78;5089510;28;20342;-62
2023/03/17 08:05:13;;;;;;;;;;;;;;;21.02;40.36;99684.94;5086187;28;19961;-65
2023/03/17 08:07:38;;;;;;;;;;;;;;;20.56;41.75;99677.75;5085816;28;19957;-62
2023/03/17 08:10:04;;;;;;;;;;;;;;;19.98;41.85;99675.13;5086214;28;19923;-65
2023/03/17 08:12:29;;;;;;;;;;;;;;;19.08;43.25;99684.59;5053333;28;20686;-62
2023/03/17 08:14:55;;;;;;;;;;;;;;;18.56;44.51;99679.41;5067946;28;19958;-62
2023/03/17 08:17:25;;;;;;;;;;;;;;;18.07;46.71;99678.38;5083091;28;19936;-63
2023/03/17 08:19:51;;;;;;;;;;;;;;;18.78;45.77;99684.13;5054748;28;19977;-63
2023/03/17 08:22:17;;;;;;;;;;;;;;;19.86;44.06;99676.06;5077335;28;19934;-61
2023/03/17 08:24:43;;;;;;;;;;;;;;;20.05;42.68;99681.75;5089550;28;19926;-61
2023/03/17 08:27:08;;;;;;;;;;;;;;;19.77;43.82;99682.13;5081001;28;19947;-62
2023/03/17 08:29:33;;;;;;;;;;;;;;;20.30;43.73;99676.22;5082707;28;19938;-62
2023/03/17 08:31:59;;;;;;;;;;;;;;;20.39;42.53;99680.94;5087322;28;19931;-62
2023/03/17 08:34:25;;;;;;;;;;;;;;;20.58;42.59;99666.81;5084118;28;19934;-62
2023/03/17 08:36:50;;;;;;;;;;;;;;;20.77;42.56;99664.38;5073213;28;20494;-63
2023/03/17 08:39:16;;;;;;;;;;;;;;;20.70;42.33;99669.44;5068549;28;20444;-61
2023/03/17 08:41:42;;;;;;;;;;;;;;;20.36;40.28;99675.75;5070966;28;19941;-62
2023/03/17 08:44:07;;;;;;;;;;;;;;;20.18;40.58;99666.38;5080682;28;19942;-62
2023/03/17 08:46:33;;;;;;;;;;;;;;;20.52;41.64;99664.59;5089179;28;20391;-62
2023/03/17 08:48:59;;;;;;;;;;;;;;;20.69;40.79;99666.84;5090060;28;20038;-61
2023/03/17 08:51:26;;;;;;;;;;;;;;;20.72;37.40;99672.84;5088183;28;19932;-64
2023/03/17 08:53:52;;;;;;;;;;;;;;;19.90;37.23;99665.88;5089287;28;19960;-62
2023/03/17 08:56:18;;;;;;;;;;;;;;;20.04;37.61;99662.97;5087411;28;19955;-61
2023/03/17 08:58:43;;;;;;;;;;;;;;;19.70;38.03;99653.91;5081608;28;19932;-64
2023/03/17 09:01:12;;;;;;;;;;;;;;;19.74;39.03;99649.97;5086846;28;19947;-65
2023/03/17 09:03:38;;;;;;;;;;;;;;;19.91;39.62;99641.47;5088403;28;20660;-61
2023/03/17 09:06:05;;;;;;;;;;;;;;;20.35;39.83;99636.22;5076731;28;20050;-62
2023/03/17 09:08:31;;;;;;;;;;;;;;;20.25;39.78;99646.00;5087105;28;20263;-62
2023/03/17 09:11:05;;;;;;;;;;;;;;;20.12;37.82;99650.63;5074020;28;20426;-62
2023/03/17 09:13:31;;;;;;;;;;;;;;;19.69;38.44;99635.13;5071435;28;19986;-59
2023/03/17 09:15:56;;;;;;;;;;;;;;;20.27;40.06;99638.66;5073936;28;19982;-60
2023/03/17 09:18:21;;;;;;;;;;;;;;;20.43;37.83;99644.56;5078079;28;20085;-60
2023/03/17 09:20:47;;;;;;;;;;;;;;;20.74;38.06;99643.84;5086868;28;19932;-60
2023/03/17 09:23:12;;;;;;;;;;;;;;;20.36;36.33;99648.72;5086407;28;19934;-59
2023/03/17 09:25:38;;;;;;;;;;;;;;;20.08;37.15;99641.00;5090203;28;20059;-60
2023/03/17 09:28:04;;;;;;;;;;;;;;;19.97;37.96;99641.00;5088282;28;19916;-60
2023/03/17 09:30:30;;;;;;;;;;;;;;;19.75;37.82;99638.22;5091024;28;19928;-60
2023/03/17 09:32:55;;;;;;;;;;;;;;;19.01;39.11;99643.75;5090812;28;19929;-60
2023/03/17 09:35:21;;;;;;;;;;;;;;;18.22;40.45;99643.16;5089245;28;19916;-59
2023/03/17 09:37:47;;;;;;;;;;;;;;;17.82;41.17;99633.44;5089830;28;19938;-59
2023/03/17 09:40:14;;;;;;;;;;;;;;;17.86;42.84;99634.91;5088691;28;19946;-60
2023/03/17 09:43:00;;;;;;;;;;;;;;;17.89;43.31;99634.72;5085982;28;19923;-62
2023/03/17 09:45:31;;;;;;;;;;;;;;;17.81;42.51;99629.00;5078515;28;19916;-61
2023/03/17 09:48:08;;;;;;;;;;;;;;;17.74;43.03;99629.53;5088788;28;19953;-60
2023/03/17 09:50:57;;;;;;;;;;;;;;;17.75;44.00;99632.09;5089917;28;19943;-61
2023/03/17 09:53:32;;;;;;;;;;;;;;;18.22;44.33;99623.44;5062920;28;19920;-61
2023/03/17 09:55:59;;;;;;;;;;;;;;;18.30;42.51;99623.78;5073253;28;19942;-61
2023/03/17 09:58:31;;;;;;;;;;;;;;;18.18;42.96;99620.13;5069140;28;20351;-62
2023/03/17 10:00:56;;;;;;;;;;;;;;;18.13;42.89;99622.28;5070160;28;20128;-59
2023/03/17 10:03:24;;;;;;;;;;;;;;;18.11;44.38;99624.19;5077434;28;19949;-61
2023/03/17 10:05:49;;;;;;;;;;;;;;;18.51;42.42;99618.72;5077435;28;19924;-59
2023/03/17 10:08:14;;;;;;;;;;;;;;;18.88;41.92;99618.66;5089906;28;19938;-60
2023/03/17 10:10:49;;;;;;;;;;;;;;;19.09;40.56;99613.56;5085122;28;19912;-60
2023/03/17 10:13:33;;;;;;;;;;;;;;;18.79;42.36;99611.25;5070014;28;20419;-59
2023/03/17 10:16:02;;;;;;;;;;;;;;;18.78;42.50;99614.91;5083766;28;19934;-60
2023/03/17 10:18:31;;;;;;;;;;;;;;;18.78;41.58;99611.38;5090038;28;19923;-59
2023/03/17 10:21:02;;;;;;;;;;;;;;;18.74;43.09;99601.78;5069734;28;20411;-59
2023/03/17 10:23:30;;;;;;;;;;;;;;;18.97;41.84;99601.84;5089047;28;19924;-60
2023/03/17 10:25:56;;;;;;;;;;;;;;;19.07;41.50;99599.31;5088155;28;19943;-60
2023/03/17 10:28:28;;;;;;;;;;;;;;;19.48;41.72;99594.44;5078681;28;19916;-60
2023/03/17 10:30:56;;;;;;;;;;;;;;;19.58;40.81;99593.63;5089264;28;19999;-60
2023/03/17 10:33:21;;;;;;;;;;;;;;;19.48;41.51;99579.13;5089921;28;19923;-61
2023/03/17 10:35:47;;;;;;;;;;;;;;;19.43;38.71;99593.91;5089727;28;19916;-60
2023/03/17 10:38:17;;;;;;;;;;;;;;;19.22;40.45;99590.97;5084925;28;19944;-60
2023/03/17 10:41:04;;;;;;;;;;;;;;;19.34;40.29;99587.38;5084415;28;19928;-59
2023/03/17 10:43:35;;;;;;;;;;;;;;;19.63;41.03;99587.88;5089698;28;19923;-60
2023/03/17 10:46:04;;;;;;;;;;;;;;;19.92;40.54;99575.69;5070197;28;20701;-60
2023/03/17 10:48:34;;;;;;;;;;;;;;;19.76;38.83;99588.66;5089569;28;19916;-60
2023/03/17 10:51:00;;;;;;;;;;;;;;;19.74;40.07;99593.31;5090408;28;19955;-60
2023/03/17 10:53:29;;;;;;;;;;;;;;;20.02;38.66;99598.28;5089324;28;20001;-60
2023/03/17 10:56:08;;;;;;;;;;;;;;;20.61;39.95;99597.16;5088776;28;20018;-60
2023/03/17 10:58:35;;;;;;;;;;;;;;;21.04;39.40;99591.03;5088650;28;19941;-60
2023/03/17 11:01:06;;;;;;;;;;;;;;;21.14;37.65;99587.44;5089663;28;19923;-60
2023/03/17 11:03:34;;;;;;;;;;;;;;;21.26;36.47;99594.53;5087845;28;20360;-60
2023/03/17 11:06:01;;;;;;;;;;;;;;;21.17;35.98;99570.09;5071961;28;19954;-61
2023/03/17 11:08:30;;;;;;;;;;;;;;;20.95;35.00;99566.41;5070717;28;19928;-62
2023/03/17 11:10:55;;;;;;;;;;;;;;;20.73;37.55;99565.59;5070812;28;20374;-59
2023/03/17 11:13:27;;;;;;;;;;;;;;;20.43;38.01;99568.03;5086186;28;19916;-60
2023/03/17 11:15:57;;;;;;;;;;;;;;;20.58;38.42;99561.41;5082692;28;19923;-61
2023/03/17 11:18:27;;;;;;;;;;;;;;;20.83;39.09;99559.31;5089197;28;19916;-60
2023/03/17 11:20:55;;;;;;;;;;;;;;;20.75;39.41;99559.09;5088633;28;20553;-60
2023/03/17 11:23:32;;;;;;;;;;;;;;;20.63;38.67;99559.19;5087884;28;19919;-60
2023/03/17 11:26:05;;;;;;;;;;;;;;;20.38;39.81;99560.31;5088426;28;19995;-60
2023/03/17 11:28:34;;;;;;;;;;;;;;;20.39;40.16;99555.78;5088707;28;19932;-60
2023/03/17 11:31:35;;;;;;;;;;;;;;;20.30;38.69;99551.97;5089677;28;19919;-60
2023/03/17 11:34:04;;;;;;;;;;;;;;;20.36;39.40;99553.34;5006704;28;19935;-60
2023/03/17 11:36:47;;;;;;;;;;;;;;;20.42;39.51;99550.13;5066136;28;19927;-60
2023/03/17 11:39:15;;;;;;;;;;;;;;;20.40;37.33;99541.28;5089136;28;19973;-60
2023/03/17 11:41:49;;;;;;;;;;;;;;;20.48;37.35;99531.59;5089591;28;19920;-59
2023/03/17 11:44:34;;;;;;;;;;;;;;;20.44;38.30;99531.97;5092583;28;19942;-59
2023/03/17 11:47:03;;;;;;;;;;;;;;;20.46;40.67;99522.72;5093120;28;19950;-60
2023/03/17 11:49:31;;;;;;;;;;;;;;;20.77;38.23;99524.66;5080670;28;20036;-61
2023/03/17 11:52:04;;;;;;;;;;;;;;;21.11;39.13;99519.19;5087047;28;20059;-61
2023/03/17 11:54:38;;;;;;;;;;;;;;;21.45;37.80;99518.94;5092282;28;20407;-61
2023/03/17 11:57:07;;;;;;;;;;;;;;;21.28;37.80;99521.38;5091553;28;20017;-60
2023/03/17 11:59:36;;;;;;;;;;;;;;;21.50;38.79;99515.88;5092731;28;19943;-59
2023/03/17 12:02:01;;;;;;;;;;;;;;;21.13;38.49;99511.81;5092140;28;19927;-60
2023/03/17 12:04:33;;;;;;;;;;;;;;;21.11;37.78;99511.09;5091481;28;20317;-59
2023/03/17 12:07:19;;;;;;;;;;;;;;;21.14;38.84;99517.09;5090732;28;19946;-61
2023/03/17 12:09:49;;;;;;;;;;;;;;;21.19;37.44;99514.00;5071930;28;20445;-60
2023/03/17 12:12:21;;;;;;;;;;;;;;;21.50;36.45;99508.59;5080913;28;19976;-60
2023/03/17 12:14:48;;;;;;;;;;;;;;;21.62;36.22;99512.09;5092244;28;20006;-60
2023/03/17 12:17:20;;;;;;;;;;;;;;;22.07;36.90;99502.72;5091301;28;19930;-60
2023/03/17 12:20:05;;;;;;;;;;;;;;;22.47;36.03;99500.06;5091796;28;19923;-60
2023/03/17 12:22:35;;;;;;;;;;;;;;;22.71;36.06;99496.03;5092306;28;19925;-60
2023/03/17 12:25:03;;;;;;;;;;;;;;;22.93;36.88;99484.94;5091150;28;20033;-60
2023/03/17 12:27:32;;;;;;;;;;;;;;;22.75;34.60;99483.91;5081009;28;19955;-60
2023/03/17 12:30:01;;;;;;;;;;;;;;;22.92;33.70;99482.38;5078293;28;19972;-60
2023/03/17 12:32:32;;;;;;;;;;;;;;;23.16;35.79;99478.25;5091999;28;20036;-60
2023/03/17 12:35:01;;;;;;;;;;;;;;;22.99;34.64;99472.66;5077202;28;19928;-60
2023/03/17 12:37:27;;;;;;;;;;;;;;;22.75;35.38;99474.94;5090477;28;20008;-60
2023/03/17 12:39:55;;;;;;;;;;;;;;;23.12;36.45;99470.53;5091551;28;19932;-60
2023/03/17 12:42:28;;;;;;;;;;;;;;;23.52;34.42;99474.00;5089934;28;19926;-60
2023/03/17 12:45:09;;;;;;;;;;;;;;;24.07;35.09;99475.91;5073372;28;19933;-60
2023/03/17 12:47:43;;;;;;;;;;;;;;;24.47;32.50;99481.03;5071140;28;19920;-60
2023/03/17 12:50:26;;;;;;;;;;;;;;;24.15;34.58;99477.91;5071234;28;19916;-60